Time;durP1;ratioP1;P1;durP2;ratioP2;P2;SDS_P1;SDS_P2;PMS_P1;PMS_P2;Temp;Humidity;BMP_temperature;BMP_pressure;BME280_temperature;BME280_humidity;BME280_pressure;Samples;Min_cycle;Max_cycle;Signal;HPM_P1;HPM_P2
2023/04/23 00:02:25;;;;;;;;;32.00;31.00;;;;;;;;5210595;28;8814;-70
2023/04/23 00:04:58;;;;;;;;;27.80;27.40;;;;;;;;5227828;28;9181;-70
2023/04/23 00:07:30;;;;;;;;;26.80;26.40;;;;;;;;5242279;28;8823;-70
2023/04/23 00:10:07;;;;;;;;;23.80;23.80;;;;;;;;5250046;28;8775;-70
2023/04/23 00:12:39;;;;;;;;;19.40;18.80;;;;;;;;5227320;28;8932;-70
2023/04/23 00:15:11;;;;;;;;;17.80;17.40;;;;;;;;5210592;28;8809;-70
2023/04/23 00:17:42;;;;;;;;;14.20;14.20;;;;;;;;5228987;28;8927;-71
2023/04/23 00:20:15;;;;;;;;;9.60;9.60;;;;;;;;5228918;28;9544;-70
2023/04/23 00:22:46;;;;;;;;;14.00;12.00;;;;;;;;5227553;28;8805;-70
2023/04/23 00:25:17;;;;;;;;;13.60;13.60;;;;;;;;5228821;28;8851;-70
2023/04/23 00:27:48;;;;;;;;;20.60;20.60;;;;;;;;5227707;28;8893;-70
2023/04/23 00:30:19;;;;;;;;;26.75;23.25;;;;;;;;5228514;28;8785;-70
2023/04/23 00:32:50;;;;;;;;;40.20;37.00;;;;;;;;5228350;28;8835;-70
2023/04/23 00:35:40;;;;;;;;;33.40;31.60;;;;;;;;5229026;28;8806;-70
2023/04/23 00:38:11;;;;;;;;;40.80;37.40;;;;;;;;5227369;28;8789;-69
2023/04/23 00:40:42;;;;;;;;;49.80;40.40;;;;;;;;5227039;28;8774;-69
2023/04/23 00:43:14;;;;;;;;;53.40;44.60;;;;;;;;5227277;28;8912;-69
2023/04/23 00:45:46;;;;;;;;;50.20;42.40;;;;;;;;5246352;28;8787;-68
2023/04/23 00:48:17;;;;;;;;;55.00;46.20;;;;;;;;5231230;28;8810;-68
2023/04/23 00:50:48;;;;;;;;;33.00;31.80;;;;;;;;5213206;28;9575;-68
2023/04/23 00:53:19;;;;;;;;;21.60;20.80;;;;;;;;5226918;28;8793;-68
2023/04/23 00:55:50;;;;;;;;;14.40;14.40;;;;;;;;5227100;28;8794;-69
2023/04/23 00:58:21;;;;;;;;;16.40;16.40;;;;;;;;5226443;28;8794;-70
2023/04/23 01:00:53;;;;;;;;;15.80;15.80;;;;;;;;5227056;28;8880;-70
2023/04/23 01:03:25;;;;;;;;;10.80;10.80;;;;;;;;5239426;28;8916;-70
2023/04/23 01:05:57;;;;;;;;;15.00;15.00;;;;;;;;5224106;28;8932;-70
2023/04/23 01:08:30;;;;;;;;;9.20;9.20;;;;;;;;5227966;28;8816;-71
2023/04/23 01:11:01;;;;;;;;;12.80;12.80;;;;;;;;5247550;28;8901;-71
2023/04/23 01:13:33;;;;;;;;;14.40;14.40;;;;;;;;5246992;28;8795;-71
2023/04/23 01:16:05;;;;;;;;;13.60;13.60;;;;;;;;5247293;28;8787;-71
2023/04/23 01:18:55;;;;;;;;;14.00;13.20;;;;;;;;5233628;28;8943;-70
2023/04/23 01:21:45;;;;;;;;;12.00;12.00;;;;;;;;5247424;28;8783;-70
2023/04/23 01:24:16;;;;;;;;;9.00;9.00;;;;;;;;5209721;28;8814;-70
2023/04/23 01:26:47;;;;;;;;;12.00;11.60;;;;;;;;5227422;28;8786;-69
2023/04/23 01:29:19;;;;;;;;;9.20;9.00;;;;;;;;5236834;28;8779;-69
2023/04/23 01:31:50;;;;;;;;;13.20;13.00;;;;;;;;5213638;28;8809;-69
2023/04/23 01:34:21;;;;;;;;;16.20;15.40;;;;;;;;5247984;28;8836;-69
2023/04/23 01:36:53;;;;;;;;;9.00;9.00;;;;;;;;5239408;28;8881;-69
2023/04/23 01:39:25;;;;;;;;;15.80;13.60;;;;;;;;5227385;28;8800;-69
2023/04/23 01:41:56;;;;;;;;;9.80;9.60;;;;;;;;5226266;28;8867;-68
2023/04/23 01:44:27;;;;;;;;;8.20;8.20;;;;;;;;5226625;28;9493;-69
2023/04/23 01:46:58;;;;;;;;;8.60;8.20;;;;;;;;5227492;28;8797;-69
2023/04/23 01:49:48;;;;;;;;;9.60;9.60;;;;;;;;5226169;28;8821;-69
2023/04/23 01:52:19;;;;;;;;;9.00;9.00;;;;;;;;5226305;28;8924;-69
2023/04/23 01:54:50;;;;;;;;;6.60;6.60;;;;;;;;5225965;28;8858;-68
2023/04/23 01:57:25;;;;;;;;;5.80;5.80;;;;;;;;5209686;28;8805;-68
2023/04/23 02:00:07;;;;;;;;;7.60;7.00;;;;;;;;5225967;28;8820;-69
2023/04/23 02:02:43;;;;;;;;;8.40;8.40;;;;;;;;5247262;28;8779;-69
2023/04/23 02:05:34;;;;;;;;;10.40;10.40;;;;;;;;5247918;28;8822;-69
2023/04/23 02:08:05;;;;;;;;;15.60;15.60;;;;;;;;5240468;28;8825;-68
2023/04/23 02:10:37;;;;;;;;;13.60;13.60;;;;;;;;5225545;28;8801;-68
2023/04/23 02:13:08;;;;;;;;;14.60;13.60;;;;;;;;5226089;28;8778;-68
2023/04/23 02:15:41;;;;;;;;;16.00;15.20;;;;;;;;5226618;28;8782;-68
2023/04/23 02:18:12;;;;;;;;;16.60;16.60;;;;;;;;5226533;28;8809;-70
2023/04/23 02:20:46;;;;;;;;;11.80;11.80;;;;;;;;5226754;28;8790;-69
2023/04/23 02:23:17;;;;;;;;;9.40;9.40;;;;;;;;5234996;28;8771;-70
2023/04/23 02:25:48;;;;;;;;;10.75;10.75;;;;;;;;5244522;28;8802;-70
2023/04/23 02:28:19;;;;;;;;;10.40;10.00;;;;;;;;5243245;28;11521;-71
2023/04/23 02:30:50;;;;;;;;;9.00;8.80;;;;;;;;5208616;28;8777;-70
2023/04/23 02:33:22;;;;;;;;;10.40;10.40;;;;;;;;5225034;28;8859;-70
2023/04/23 02:35:53;;;;;;;;;10.00;10.00;;;;;;;;5208329;28;8835;-69
2023/04/23 02:38:44;;;;;;;;;7.60;7.60;;;;;;;;5226214;28;8786;-70
2023/04/23 02:41:15;;;;;;;;;10.00;10.00;;;;;;;;5225034;28;8808;-69
2023/04/23 02:43:46;;;;;;;;;11.20;11.00;;;;;;;;5232662;28;8827;-69
2023/04/23 02:46:36;;;;;;;;;10.60;10.60;;;;;;;;5245618;28;8821;-69
2023/04/23 02:49:07;;;;;;;;;10.20;9.40;;;;;;;;5245907;28;8819;-69
2023/04/23 02:51:38;;;;;;;;;9.20;9.00;;;;;;;;5246818;28;8904;-70
2023/04/23 02:54:10;;;;;;;;;10.80;10.80;;;;;;;;5228687;28;8791;-70
2023/04/23 02:56:41;;;;;;;;;11.00;11.00;;;;;;;;5241245;28;8837;-69
2023/04/23 02:59:12;;;;;;;;;12.00;12.00;;;;;;;;5224982;28;8765;-70
2023/04/23 03:02:02;;;;;;;;;23.20;22.00;;;;;;;;5226036;28;8814;-70
2023/04/23 03:04:33;;;;;;;;;14.40;13.00;;;;;;;;5230457;28;8803;-70
2023/04/23 03:07:05;;;;;;;;;12.00;12.00;;;;;;;;5243969;28;8822;-70
2023/04/23 03:09:54;;;;;;;;;10.00;10.00;;;;;;;;5235792;28;8810;-70
2023/04/23 03:12:25;;;;;;;;;12.00;12.00;;;;;;;;5234308;28;8946;-69
2023/04/23 03:14:56;;;;;;;;;14.50;14.50;;;;;;;;5245002;28;8947;-69
2023/04/23 03:17:30;;;;;;;;;17.40;16.60;;;;;;;;5228807;28;10915;-70
2023/04/23 03:20:02;;;;;;;;;17.40;16.00;;;;;;;;5227583;28;8798;-70
2023/04/23 03:22:36;;;;;;;;;6.60;6.60;;;;;;;;5214500;28;9627;-68
2023/04/23 03:25:08;;;;;;;;;3.00;3.00;;;;;;;;5226557;28;8836;-69
2023/04/23 03:27:40;;;;;;;;;3.80;3.80;;;;;;;;5244699;28;8817;-68
2023/04/23 03:30:11;;;;;;;;;6.00;6.00;;;;;;;;5244785;28;8837;-68
2023/04/23 03:32:42;;;;;;;;;4.40;4.40;;;;;;;;5244030;28;8793;-69
2023/04/23 03:35:13;;;;;;;;;5.40;5.40;;;;;;;;5239770;28;8824;-70
2023/04/23 03:37:48;;;;;;;;;6.40;6.40;;;;;;;;5231293;28;8819;-69
2023/04/23 03:40:20;;;;;;;;;5.00;5.00;;;;;;;;5232337;28;8781;-69
2023/04/23 03:42:54;;;;;;;;;4.00;4.00;;;;;;;;5246440;28;8840;-69
2023/04/23 03:45:34;;;;;;;;;5.00;5.00;;;;;;;;5237094;28;8794;-69
2023/04/23 03:48:06;;;;;;;;;4.00;3.60;;;;;;;;5250091;28;8806;-69
2023/04/23 03:50:39;;;;;;;;;6.00;5.00;;;;;;;;5248708;28;8787;-69
2023/04/23 03:53:29;;;;;;;;;4.00;4.00;;;;;;;;5223484;28;8793;-69
2023/04/23 03:56:23;;;;;;;;;7.80;7.00;;;;;;;;5220573;28;8814;-70
2023/04/23 03:59:05;;;;;;;;;7.00;7.00;;;;;;;;5218786;28;8940;-69
2023/04/23 04:01:36;;;;;;;;;7.00;7.00;;;;;;;;5195201;28;8904;-70
2023/04/23 04:04:07;;;;;;;;;6.80;6.80;;;;;;;;5213829;28;9544;-69
2023/04/23 04:06:38;;;;;;;;;7.00;7.00;;;;;;;;5230307;28;8803;-69
2023/04/23 04:09:09;;;;;;;;;5.00;5.00;;;;;;;;5233171;28;9554;-70
2023/04/23 04:11:40;;;;;;;;;2.80;2.80;;;;;;;;5229778;28;8777;-66
2023/04/23 04:14:13;;;;;;;;;5.40;5.40;;;;;;;;5211545;28;8778;-67
2023/04/23 04:16:45;;;;;;;;;5.00;5.00;;;;;;;;5215891;28;8822;-70
2023/04/23 04:19:16;;;;;;;;;5.00;5.00;;;;;;;;5228762;28;8790;-70
2023/04/23 04:21:48;;;;;;;;;15.00;15.00;;;;;;;;5237523;28;8949;-70
2023/04/23 04:24:20;;;;;;;;;4.20;4.20;;;;;;;;5227182;28;9701;-70
2023/04/23 04:26:51;;;;;;;;;4.00;4.00;;;;;;;;5227281;28;8805;-69
2023/04/23 04:29:22;;;;;;;;;4.00;4.00;;;;;;;;5225972;28;8939;-71
2023/04/23 04:31:54;;;;;;;;;4.00;4.00;;;;;;;;5228262;28;8811;-70
2023/04/23 04:34:25;;;;;;;;;3.00;3.00;;;;;;;;5224788;28;8821;-70
2023/04/23 04:36:56;;;;;;;;;4.80;4.80;;;;;;;;5200052;28;9670;-70
2023/04/23 04:39:47;;;;;;;;;5.00;5.00;;;;;;;;5212591;28;8818;-69
2023/04/23 04:42:18;;;;;;;;;5.00;5.00;;;;;;;;5209104;28;8809;-69
2023/04/23 04:44:49;;;;;;;;;4.00;4.00;;;;;;;;5233645;28;8791;-69
2023/04/23 04:47:38;;;;;;;;;5.80;5.80;;;;;;;;5245539;28;9532;-68
2023/04/23 04:50:09;;;;;;;;;6.00;6.00;;;;;;;;5227821;28;8837;-69
2023/04/23 04:52:41;;;;;;;;;3.00;3.00;;;;;;;;5244772;28;8817;-68
2023/04/23 04:55:12;;;;;;;;;2.50;2.50;;;;;;;;5211698;28;8799;-68
2023/04/23 04:57:43;;;;;;;;;2.80;2.80;;;;;;;;5238874;28;8809;-70
2023/04/23 05:00:27;;;;;;;;;3.00;3.00;;;;;;;;5225339;28;9608;-70
2023/04/23 05:03:17;;;;;;;;;4.75;4.25;;;;;;;;5241493;28;8831;-70
2023/04/23 05:05:48;;;;;;;;;2.25;2.25;;;;;;;;5223091;28;8829;-70
2023/04/23 05:08:20;;;;;;;;;3.25;3.25;;;;;;;;5241552;28;8834;-68
2023/04/23 05:10:53;;;;;;;;;3.00;3.00;;;;;;;;5241008;28;9630;-68
2023/04/23 05:13:24;;;;;;;;;4.00;4.00;;;;;;;;5228020;28;8798;-69
2023/04/23 05:15:55;;;;;;;;;2.50;2.50;;;;;;;;5208877;28;8818;-69
2023/04/23 05:18:45;;;;;;;;;2.50;2.50;;;;;;;;5237538;28;9564;-69
2023/04/23 05:21:35;;;;;;;;;1.00;1.00;;;;;;;;5221729;28;8887;-68
2023/04/23 05:24:06;;;;;;;;;2.00;2.00;;;;;;;;5224287;28;8814;-69
2023/04/23 05:26:37;;;;;;;;;1.50;1.50;;;;;;;;5244594;28;8771;-68
2023/04/23 05:29:08;;;;;;;;;2.00;2.00;;;;;;;;5246008;28;9514;-68
2023/04/23 05:31:39;;;;;;;;;1.75;1.75;;;;;;;;5246032;28;8779;-68
2023/04/23 05:34:10;;;;;;;;;0.75;0.75;;;;;;;;5229139;28;8775;-69
2023/04/23 05:36:41;;;;;;;;;2.50;2.50;;;;;;;;5247181;28;9588;-69
2023/04/23 05:39:12;;;;;;;;;2.00;2.00;;;;;;;;5246790;28;8791;-69
2023/04/23 05:41:43;;;;;;;;;1.33;1.33;;;;;;;;5230938;28;8921;-69
2023/04/23 05:44:32;;;;;;;;;1.75;1.75;;;;;;;;5232912;28;11415;-69
2023/04/23 05:47:03;;;;;;;;;2.00;2.00;;;;;;;;5248009;28;8755;-68
2023/04/23 05:49:34;;;;;;;;;1.25;1.25;;;;;;;;5230577;28;8775;-69
2023/04/23 05:52:05;;;;;;;;;1.33;1.33;;;;;;;;5246918;28;8829;-69
2023/04/23 05:54:36;;;;;;;;;0.00;0.00;;;;;;;;5246610;28;8783;-69
2023/04/23 05:57:07;;;;;;;;;1.00;1.00;;;;;;;;5247849;28;8806;-68
2023/04/23 05:59:38;;;;;;;;;1.33;1.33;;;;;;;;5229257;28;8795;-69
2023/04/23 06:02:09;;;;;;;;;3.00;1.75;;;;;;;;5246728;28;8802;-68
2023/04/23 06:04:40;;;;;;;;;5.25;5.25;;;;;;;;5246672;28;8942;-69
2023/04/23 06:07:14;;;;;;;;;2.25;2.00;;;;;;;;5246506;28;8797;-68
2023/04/23 06:09:45;;;;;;;;;2.50;2.50;;;;;;;;5246394;28;8783;-69
2023/04/23 06:12:16;;;;;;;;;3.00;3.00;;;;;;;;5213168;28;8763;-68
2023/04/23 06:15:07;;;;;;;;;2.00;2.00;;;;;;;;5247569;28;9591;-69
2023/04/23 06:17:38;;;;;;;;;4.00;4.00;;;;;;;;5246184;28;8807;-69
2023/04/23 06:20:10;;;;;;;;;2.50;2.50;;;;;;;;5246211;28;8787;-69
2023/04/23 06:22:41;;;;;;;;;3.00;3.00;;;;;;;;5247249;28;9502;-69
2023/04/23 06:25:12;;;;;;;;;2.25;2.25;;;;;;;;5246369;28;8794;-69
2023/04/23 06:28:02;;;;;;;;;4.00;4.00;;;;;;;;5232384;28;8802;-69
2023/04/23 06:30:38;;;;;;;;;4.25;4.25;;;;;;;;5230226;28;8810;-68
2023/04/23 06:33:27;;;;;;;;;4.00;4.00;;;;;;;;5245956;28;8775;-68
2023/04/23 06:35:58;;;;;;;;;4.00;4.00;;;;;;;;5245626;28;8900;-69
2023/04/23 06:38:29;;;;;;;;;3.75;3.75;;;;;;;;5245857;28;9541;-68
2023/04/23 06:41:03;;;;;;;;;4.25;4.25;;;;;;;;5247043;28;8791;-68
2023/04/23 06:43:53;;;;;;;;;3.75;3.75;;;;;;;;5247266;28;8799;-68
2023/04/23 06:46:36;;;;;;;;;3.00;3.00;;;;;;;;5229186;28;8799;-68
2023/04/23 06:49:07;;;;;;;;;4.75;4.75;;;;;;;;5245560;28;8846;-68
2023/04/23 06:51:38;;;;;;;;;4.00;4.00;;;;;;;;5228968;28;8783;-69
2023/04/23 06:54:27;;;;;;;;;8.80;8.80;;;;;;;;5246723;28;8794;-68
2023/04/23 06:56:58;;;;;;;;;11.67;11.67;;;;;;;;5246491;28;8806;-68
2023/04/23 06:59:29;;;;;;;;;10.50;9.75;;;;;;;;5245538;28;9533;-69
2023/04/23 07:02:02;;;;;;;;;31.80;30.00;;;;;;;;5228686;28;8787;-69
2023/04/23 07:04:34;;;;;;;;;8.75;8.75;;;;;;;;5245483;28;8794;-69
2023/04/23 07:07:05;;;;;;;;;4.75;4.25;;;;;;;;5228286;28;8783;-68
2023/04/23 07:09:36;;;;;;;;;0.50;0.50;;;;;;;;5228468;28;8894;-68
2023/04/23 07:12:07;;;;;;;;;8.75;8.75;;;;;;;;5246493;28;8791;-68
2023/04/23 07:14:38;;;;;;;;;6.25;6.00;;;;;;;;5228674;28;8879;-68
2023/04/23 07:17:27;;;;;;;;;12.25;12.25;;;;;;;;5245413;28;8823;-68
2023/04/23 07:19:58;;;;;;;;;11.00;10.50;;;;;;;;5245312;28;8771;-68
2023/04/23 07:22:29;;;;;;;;;2.50;2.50;;;;;;;;5244990;28;8763;-69
2023/04/23 07:25:01;;;;;;;;;10.50;9.00;;;;;;;;5244925;28;8778;-68
2023/04/23 07:27:34;;;;;;;;;11.50;10.25;;;;;;;;5245945;28;8795;-69
2023/04/23 07:30:25;;;;;;;;;4.25;4.25;;;;;;;;5245267;28;8768;-69
2023/04/23 07:32:56;;;;;;;;;8.00;8.00;;;;;;;;5228396;28;8806;-69
2023/04/23 07:35:27;;;;;;;;;8.00;8.00;;;;;;;;5244632;28;8838;-69
2023/04/23 07:37:58;;;;;;;;;2.25;2.00;;;;;;;;5244753;28;11385;-69
2023/04/23 07:40:29;;;;;;;;;6.00;6.00;;;;;;;;5244919;28;8871;-69
2023/04/23 07:43:19;;;;;;;;;4.00;4.00;;;;;;;;5246211;28;8763;-69
2023/04/23 07:45:50;;;;;;;;;12.00;12.00;;;;;;;;5244932;28;8786;-69
2023/04/23 07:48:21;;;;;;;;;4.00;4.00;;;;;;;;5244499;28;8802;-69
2023/04/23 07:50:52;;;;;;;;;1.75;1.75;;;;;;;;5246497;28;8870;-69
2023/04/23 07:53:42;;;;;;;;;2.75;2.75;;;;;;;;5246269;28;9633;-69
2023/04/23 07:56:13;;;;;;;;;8.00;8.00;;;;;;;;5228017;28;8787;-69
2023/04/23 07:58:44;;;;;;;;;2.50;2.50;;;;;;;;5244859;28;9502;-69
2023/04/23 08:01:16;;;;;;;;;14.25;13.50;;;;;;;;5228198;28;8858;-69
2023/04/23 08:03:46;;;;;;;;;6.50;6.50;;;;;;;;5244716;28;8767;-69
2023/04/23 08:06:17;;;;;;;;;6.67;6.00;;;;;;;;5244755;28;9497;-69
2023/04/23 08:08:49;;;;;;;;;3.25;3.25;;;;;;;;5245850;28;8795;-69
2023/04/23 08:11:20;;;;;;;;;5.25;5.25;;;;;;;;5245918;28;8794;-70
2023/04/23 08:13:51;;;;;;;;;3.00;3.00;;;;;;;;5244708;28;8776;-69
2023/04/23 08:16:40;;;;;;;;;4.75;4.75;;;;;;;;5245996;28;8811;-70
2023/04/23 08:19:32;;;;;;;;;5.50;5.50;;;;;;;;5244509;28;8854;-70
2023/04/23 08:22:03;;;;;;;;;5.25;5.25;;;;;;;;5246927;28;8868;-69
2023/04/23 08:24:52;;;;;;;;;2.50;2.50;;;;;;;;5248609;28;8822;-70
2023/04/23 08:27:23;;;;;;;;;4.00;4.00;;;;;;;;5249415;28;8795;-69
2023/04/23 08:29:54;;;;;;;;;3.00;3.00;;;;;;;;5249288;28;9663;-69
2023/04/23 08:32:26;;;;;;;;;2.00;2.00;;;;;;;;5231567;28;8883;-69
2023/04/23 08:34:58;;;;;;;;;0.00;0.00;;;;;;;;5248581;28;8822;-70
2023/04/23 08:37:29;;;;;;;;;10.00;10.00;;;;;;;;5215040;28;8799;-70
2023/04/23 08:40:00;;;;;;;;;3.25;3.25;;;;;;;;5214749;28;8809;-70
2023/04/23 08:42:56;;;;;;;;;4.00;4.00;;;;;;;;5249358;28;8856;-70
2023/04/23 08:45:28;;;;;;;;;3.75;3.50;;;;;;;;5231719;28;8810;-70
2023/04/23 08:48:00;;;;;;;;;3.00;3.00;;;;;;;;5231200;28;8830;-70
2023/04/23 08:50:32;;;;;;;;;4.50;4.50;;;;;;;;5231156;28;8791;-70
2023/04/23 08:53:05;;;;;;;;;6.50;5.75;;;;;;;;5231306;28;8775;-70
2023/04/23 08:55:36;;;;;;;;;4.00;4.00;;;;;;;;5231577;28;9505;-70
2023/04/23 08:58:07;;;;;;;;;3.75;3.75;;;;;;;;5247786;28;8795;-70
2023/04/23 09:00:38;;;;;;;;;2.00;2.00;;;;;;;;5247709;28;9562;-70
2023/04/23 09:03:09;;;;;;;;;2.00;2.00;;;;;;;;5231012;28;8878;-70
2023/04/23 09:05:40;;;;;;;;;1.00;1.00;;;;;;;;5247548;28;8825;-70
2023/04/23 09:08:11;;;;;;;;;2.00;2.00;;;;;;;;5230785;28;8827;-70
2023/04/23 09:10:43;;;;;;;;;1.25;1.25;;;;;;;;5230856;28;8821;-70
2023/04/23 09:13:14;;;;;;;;;2.00;2.00;;;;;;;;5214491;28;8801;-70
2023/04/23 09:15:45;;;;;;;;;3.75;3.75;;;;;;;;5214075;28;8807;-70
2023/04/23 09:18:18;;;;;;;;;3.00;3.00;;;;;;;;5248053;28;8805;-70
2023/04/23 09:20:49;;;;;;;;;2.00;2.00;;;;;;;;5248882;28;8809;-70
2023/04/23 09:23:21;;;;;;;;;2.50;2.50;;;;;;;;5247437;28;8798;-70
2023/04/23 09:25:52;;;;;;;;;7.50;7.50;;;;;;;;5230698;28;9024;-70
2023/04/23 09:28:41;;;;;;;;;3.25;3.25;;;;;;;;5230619;28;8937;-70
2023/04/23 09:31:12;;;;;;;;;2.75;2.75;;;;;;;;5247518;28;9537;-70
2023/04/23 09:33:49;;;;;;;;;2.00;2.00;;;;;;;;5230353;28;8787;-70
2023/04/23 09:36:21;;;;;;;;;2.50;2.50;;;;;;;;5246855;28;11431;-70
2023/04/23 09:38:56;;;;;;;;;0.75;0.75;;;;;;;;5247723;28;8795;-70
2023/04/23 09:41:27;;;;;;;;;1.00;1.00;;;;;;;;5246731;28;8938;-70
2023/04/23 09:43:58;;;;;;;;;2.33;2.33;;;;;;;;5248022;28;8791;-70
2023/04/23 09:46:33;;;;;;;;;2.00;2.00;;;;;;;;5230029;28;10786;-70
2023/04/23 09:49:09;;;;;;;;;2.00;2.00;;;;;;;;5247969;28;8845;-70
2023/04/23 09:51:45;;;;;;;;;1.00;1.00;;;;;;;;5247109;28;8794;-70
2023/04/23 09:54:20;;;;;;;;;0.75;0.75;;;;;;;;5246653;28;8799;-70
2023/04/23 09:57:10;;;;;;;;;6.25;6.25;;;;;;;;5246572;28;8802;-70
2023/04/23 09:59:41;;;;;;;;;0.50;0.50;;;;;;;;5246189;28;8787;-70
2023/04/23 10:02:12;;;;;;;;;0.75;0.75;;;;;;;;5246762;28;8787;-70
2023/04/23 10:04:43;;;;;;;;;1.50;1.50;;;;;;;;5229805;28;9498;-70
2023/04/23 10:07:15;;;;;;;;;1.00;1.00;;;;;;;;5247733;28;8791;-70
2023/04/23 10:09:47;;;;;;;;;1.00;1.00;;;;;;;;5229674;28;8791;-70
2023/04/23 10:12:19;;;;;;;;;0.50;0.25;;;;;;;;5246554;28;9505;-70
2023/04/23 10:14:52;;;;;;;;;1.00;1.00;;;;;;;;5229658;28;8868;-70
2023/04/23 10:17:23;;;;;;;;;8.25;8.25;;;;;;;;5247210;28;8799;-70
2023/04/23 10:19:54;;;;;;;;;3.00;3.00;;;;;;;;5229881;28;8822;-70
2023/04/23 10:22:26;;;;;;;;;0.00;0.00;;;;;;;;5246142;28;8787;-70
2023/04/23 10:24:59;;;;;;;;;1.00;1.00;;;;;;;;5246109;28;9572;-70
2023/04/23 10:27:30;;;;;;;;;1.75;1.75;;;;;;;;5229587;28;8795;-70
2023/04/23 10:30:03;;;;;;;;;0.75;0.75;;;;;;;;5246105;28;8760;-71
2023/04/23 10:32:37;;;;;;;;;3.00;3.00;;;;;;;;5246035;28;8771;-70
2023/04/23 10:35:08;;;;;;;;;2.00;2.00;;;;;;;;5229351;28;8801;-70
2023/04/23 10:37:40;;;;;;;;;1.00;1.00;;;;;;;;5246794;28;8852;-70
2023/04/23 10:40:13;;;;;;;;;1.00;1.00;;;;;;;;5245835;28;8829;-71
2023/04/23 10:42:44;;;;;;;;;0.00;0.00;;;;;;;;5246815;28;8910;-71
2023/04/23 10:45:16;;;;;;;;;1.00;1.00;;;;;;;;5246237;28;8783;-70
2023/04/23 10:48:07;;;;;;;;;3.00;3.00;;;;;;;;5247185;28;8783;-70
2023/04/23 10:50:40;;;;;;;;;1.00;1.00;;;;;;;;5229336;28;8794;-70
2023/04/23 10:53:19;;;;;;;;;5.50;5.50;;;;;;;;5245628;28;8767;-70
2023/04/23 10:56:03;;;;;;;;;8.25;8.25;;;;;;;;5245712;28;8836;-70
2023/04/23 10:58:47;;;;;;;;;3.00;3.00;;;;;;;;5245599;28;9506;-71
2023/04/23 11:01:19;;;;;;;;;0.00;0.00;;;;;;;;5245465;28;8810;-71
2023/04/23 11:03:51;;;;;;;;;0.00;0.00;;;;;;;;5245180;28;8877;-70
2023/04/23 11:06:42;;;;;;;;;4.75;4.75;;;;;;;;5228594;28;8775;-71
2023/04/23 11:09:32;;;;;;;;;3.00;3.00;;;;;;;;5245389;28;8791;-71
2023/04/23 11:12:05;;;;;;;;;0.00;0.00;;;;;;;;5245219;28;8779;-71
2023/04/23 11:14:37;;;;;;;;;1.00;1.00;;;;;;;;5245140;28;8799;-71
2023/04/23 11:17:11;;;;;;;;;1.00;1.00;;;;;;;;5228780;28;8834;-71
2023/04/23 11:20:01;;;;;;;;;0.00;0.00;;;;;;;;5246409;28;8833;-71
2023/04/23 11:22:35;;;;;;;;;0.00;0.00;;;;;;;;5228950;28;9498;-71
2023/04/23 11:25:11;;;;;;;;;2.50;2.50;;;;;;;;5228208;28;8783;-71
2023/04/23 11:27:43;;;;;;;;;1.00;1.00;;;;;;;;5246188;28;8818;-71
2023/04/23 11:30:32;;;;;;;;;2.00;2.00;;;;;;;;5245181;28;8775;-71
2023/04/23 11:33:04;;;;;;;;;1.00;1.00;;;;;;;;5246446;28;8860;-71
2023/04/23 11:35:39;;;;;;;;;1.00;1.00;;;;;;;;5245104;28;8810;-71
2023/04/23 11:38:10;;;;;;;;;3.00;3.00;;;;;;;;5228415;28;8848;-71
2023/04/23 11:40:45;;;;;;;;;1.25;1.25;;;;;;;;5226859;28;8783;-71
2023/04/23 11:43:20;;;;;;;;;6.25;6.25;;;;;;;;5245783;28;8921;-70
2023/04/23 11:46:09;;;;;;;;;5.00;5.00;;;;;;;;5230797;28;8791;-71
2023/04/23 11:48:40;;;;;;;;;4.50;4.50;;;;;;;;5227971;28;8822;-71
2023/04/23 11:51:11;;;;;;;;;0.00;0.00;;;;;;;;5228351;28;8787;-71
2023/04/23 11:53:46;;;;;;;;;2.25;2.25;;;;;;;;5211606;28;8795;-71
2023/04/23 11:56:18;;;;;;;;;1.00;1.00;;;;;;;;5228027;28;8791;-71
2023/04/23 11:59:02;;;;;;;;;5.00;4.00;;;;;;;;5249556;28;8880;-71
2023/04/23 12:01:41;;;;;;;;;4.00;4.00;;;;;;;;5250466;28;8791;-71
2023/04/23 12:04:17;;;;;;;;;1.00;1.00;;;;;;;;5249984;28;8825;-71
2023/04/23 12:06:49;;;;;;;;;2.00;2.00;;;;;;;;5232895;28;8817;-71
2023/04/23 12:09:21;;;;;;;;;0.50;0.50;;;;;;;;5232594;28;9462;-71
2023/04/23 12:11:53;;;;;;;;;1.25;1.25;;;;;;;;5249671;28;9375;-72
2023/04/23 12:14:27;;;;;;;;;1.25;1.25;;;;;;;;5234483;28;8837;-73
2023/04/23 12:17:08;;;;;;;;;0.25;0.25;;;;;;;;5242111;28;8869;-71
2023/04/23 12:19:58;;;;;;;;;1.25;1.25;;;;;;;;5244183;28;9506;-71
2023/04/23 12:22:47;;;;;;;;;4.00;4.00;;;;;;;;5248388;28;8787;-71
2023/04/23 12:25:21;;;;;;;;;0.25;0.25;;;;;;;;5227264;28;8811;-72
2023/04/23 12:27:58;;;;;;;;;1.75;1.75;;;;;;;;5240687;28;8807;-70
2023/04/23 12:30:30;;;;;;;;;1.00;1.00;;;;;;;;5231830;28;8771;-70
2023/04/23 12:33:03;;;;;;;;;0.75;0.75;;;;;;;;5231643;28;9407;-70
2023/04/23 12:35:42;;;;;;;;;1.25;1.25;;;;;;;;5248113;28;8821;-70
2023/04/23 12:38:29;;;;;;;;;2.25;2.25;;;;;;;;5248635;28;8805;-71
2023/04/23 12:41:00;;;;;;;;;4.75;4.75;;;;;;;;5225826;28;8806;-72
2023/04/23 12:43:31;;;;;;;;;2.75;2.75;;;;;;;;5228645;28;9489;-72
2023/04/23 12:46:02;;;;;;;;;2.25;2.25;;;;;;;;5227367;28;8790;-70
2023/04/23 12:48:33;;;;;;;;;1.00;1.00;;;;;;;;5234800;28;8807;-71
2023/04/23 12:51:05;;;;;;;;;0.00;0.00;;;;;;;;5226442;28;8801;-70
2023/04/23 12:53:36;;;;;;;;;2.25;2.25;;;;;;;;5205578;28;8794;-70
2023/04/23 12:56:07;;;;;;;;;3.00;3.00;;;;;;;;5237302;28;8790;-70
2023/04/23 12:58:38;;;;;;;;;1.00;1.00;;;;;;;;5227594;28;11474;-69
2023/04/23 13:01:11;;;;;;;;;1.75;1.75;;;;;;;;5225142;28;8821;-70
2023/04/23 13:03:42;;;;;;;;;0.50;0.50;;;;;;;;5214573;28;8799;-70
2023/04/23 13:06:13;;;;;;;;;1.50;1.50;;;;;;;;5247562;28;8904;-70
2023/04/23 13:08:44;;;;;;;;;2.75;2.75;;;;;;;;5246927;28;8799;-70
2023/04/23 13:11:15;;;;;;;;;3.00;3.00;;;;;;;;5247542;28;8806;-70
2023/04/23 13:13:46;;;;;;;;;5.67;5.67;;;;;;;;5246376;28;11539;-73
2023/04/23 13:16:16;;;;;;;;;4.00;4.00;;;;;;;;5230702;28;9552;-70
2023/04/23 13:18:50;;;;;;;;;2.25;2.25;;;;;;;;5238075;28;11558;-70
2023/04/23 13:21:21;;;;;;;;;3.50;3.00;;;;;;;;5226020;28;8805;-69
2023/04/23 13:24:10;;;;;;;;;1.25;1.25;;;;;;;;5238321;28;8821;-71
2023/04/23 13:26:41;;;;;;;;;1.25;1.25;;;;;;;;5247086;28;8933;-70
2023/04/23 13:29:12;;;;;;;;;2.00;2.00;;;;;;;;5246999;28;8811;-70
2023/04/23 13:31:43;;;;;;;;;1.75;1.75;;;;;;;;5221603;28;8802;-72
2023/04/23 13:34:15;;;;;;;;;2.75;2.75;;;;;;;;5257278;28;8772;-71
2023/04/23 13:36:47;;;;;;;;;9.00;8.50;;;;;;;;5262390;28;8802;-72
2023/04/23 13:39:19;;;;;;;;;5.75;5.50;;;;;;;;5253685;28;8836;-71
2023/04/23 13:41:50;;;;;;;;;4.00;4.00;;;;;;;;5217561;28;8821;-70
2023/04/23 13:44:21;;;;;;;;;2.00;2.00;;;;;;;;5216715;28;8794;-70
2023/04/23 13:46:52;;;;;;;;;2.67;2.67;;;;;;;;5235071;28;8856;-70
2023/04/23 13:49:24;;;;;;;;;4.00;4.00;;;;;;;;5257418;28;8803;-71
2023/04/23 13:51:59;;;;;;;;;2.25;2.25;;;;;;;;5264803;28;8807;-70
2023/04/23 13:54:30;;;;;;;;;0.00;0.00;;;;;;;;5243599;28;8810;-70
2023/04/23 13:57:19;;;;;;;;;5.00;5.00;;;;;;;;5245306;28;8786;-71
2023/04/23 13:59:50;;;;;;;;;4.25;4.25;;;;;;;;5248895;28;8795;-71
2023/04/23 14:02:22;;;;;;;;;5.00;5.00;;;;;;;;5267895;28;8871;-70
2023/04/23 14:04:53;;;;;;;;;3.25;3.25;;;;;;;;5247264;28;8806;-71
2023/04/23 14:07:24;;;;;;;;;3.00;3.00;;;;;;;;5254222;28;8904;-71
2023/04/23 14:09:55;;;;;;;;;3.75;3.75;;;;;;;;5245108;28;8813;-71
2023/04/23 14:12:28;;;;;;;;;3.00;3.00;;;;;;;;5246171;28;8793;-71
2023/04/23 14:15:18;;;;;;;;;2.00;2.00;;;;;;;;5246056;28;8789;-71
2023/04/23 14:17:49;;;;;;;;;2.25;2.25;;;;;;;;5246315;28;8829;-71
2023/04/23 14:20:20;;;;;;;;;2.00;2.00;;;;;;;;5260442;28;8902;-72
2023/04/23 14:22:55;;;;;;;;;3.00;3.00;;;;;;;;5251866;28;8785;-71
2023/04/23 14:25:45;;;;;;;;;7.00;7.00;;;;;;;;5254747;28;9408;-71
2023/04/23 14:28:22;;;;;;;;;6.00;6.00;;;;;;;;5247359;28;8928;-71
2023/04/23 14:30:54;;;;;;;;;7.25;7.25;;;;;;;;5245515;28;8754;-72
2023/04/23 14:33:25;;;;;;;;;5.00;5.00;;;;;;;;5245586;28;8778;-72
2023/04/23 14:35:57;;;;;;;;;4.75;4.75;;;;;;;;5246069;28;8801;-73
2023/04/23 14:38:28;;;;;;;;;4.75;4.75;;;;;;;;5229324;28;8789;-73
2023/04/23 14:40:59;;;;;;;;;5.00;5.00;;;;;;;;5228967;28;8774;-72
2023/04/23 14:43:30;;;;;;;;;5.00;5.00;;;;;;;;5245253;28;8782;-72
2023/04/23 14:46:01;;;;;;;;;9.25;9.25;;;;;;;;5244493;28;8774;-71
2023/04/23 14:48:32;;;;;;;;;5.25;5.25;;;;;;;;5227674;28;8891;-72
2023/04/23 14:51:03;;;;;;;;;1.00;1.00;;;;;;;;5250651;28;8805;-73
2023/04/23 14:53:34;;;;;;;;;4.50;4.50;;;;;;;;5243784;28;8804;-73
2023/04/23 14:56:05;;;;;;;;;5.00;5.00;;;;;;;;5247197;28;8774;-73
2023/04/23 14:58:36;;;;;;;;;5.00;5.00;;;;;;;;5245579;28;8777;-73
2023/04/23 15:01:07;;;;;;;;;0.75;0.75;;;;;;;;5231682;28;8803;-71
2023/04/23 15:03:39;;;;;;;;;3.25;3.25;;;;;;;;5239246;28;8782;-71
2023/04/23 15:06:29;;;;;;;;;5.00;5.00;;;;;;;;5247956;28;8856;-71
2023/04/23 15:09:00;;;;;;;;;4.50;4.50;;;;;;;;5230619;28;8826;-72
2023/04/23 15:11:31;;;;;;;;;8.00;8.00;;;;;;;;5261251;28;8787;-70
2023/04/23 15:14:21;;;;;;;;;12.25;12.25;;;;;;;;5249475;28;8810;-70
2023/04/23 15:16:52;;;;;;;;;23.20;23.20;;;;;;;;5263855;28;8831;-69
2023/04/23 15:19:42;;;;;;;;;20.00;20.00;;;;;;;;5256514;28;8868;-69
2023/04/23 15:22:13;;;;;;;;;3.50;3.50;;;;;;;;5248605;28;9556;-69
2023/04/23 15:24:44;;;;;;;;;2.75;2.75;;;;;;;;5237457;28;8924;-69
2023/04/23 15:27:15;;;;;;;;;4.00;4.00;;;;;;;;5217549;28;8850;-69
2023/04/23 15:29:46;;;;;;;;;4.75;4.75;;;;;;;;5232501;28;11439;-69
2023/04/23 15:32:36;;;;;;;;;9.00;9.00;;;;;;;;5240074;28;8789;-69
2023/04/23 15:35:07;;;;;;;;;6.25;6.25;;;;;;;;5241595;28;8825;-68